sensor_id;sensor_type;location;lat;lon;timestamp;temperature;humidity
16315;DHT22;8266;52.150;4.768;2022-08-01T00:00:11;22.60;99.90
16315;DHT22;8266;52.150;4.768;2022-08-01T00:02:39;22.50;99.90
16315;DHT22;8266;52.150;4.768;2022-08-01T00:05:07;22.50;99.90
16315;DHT22;8266;52.150;4.768;2022-08-01T00:07:36;22.50;99.90
16315;DHT22;8266;52.150;4.768;2022-08-01T00:10:05;22.50;99.90
16315;DHT22;8266;52.150;4.768;2022-08-01T00:12:34;22.50;99.90
16315;DHT22;8266;52.150;4.768;2022-08-01T00:15:01;22.50;99.90
16315;DHT22;8266;52.150;4.768;2022-08-01T00:17:29;22.50;99.90
16315;DHT22;8266;52.150;4.768;2022-08-01T00:19:56;22.50;99.90
16315;DHT22;8266;52.150;4.768;2022-08-01T00:22:23;22.50;99.90
16315;DHT22;8266;52.150;4.768;2022-08-01T00:24:53;22.50;99.90
16315;DHT22;8266;52.150;4.768;2022-08-01T00:27:20;22.50;99.90
16315;DHT22;8266;52.150;4.768;2022-08-01T00:29:49;22.50;99.90
16315;DHT22;8266;52.150;4.768;2022-08-01T00:32:16;22.50;99.90
16315;DHT22;8266;52.150;4.768;2022-08-01T00:34:43;22.40;99.90
16315;DHT22;8266;52.150;4.768;2022-08-01T00:37:10;22.50;99.90
16315;DHT22;8266;52.150;4.768;2022-08-01T00:39:37;22.40;99.90
16315;DHT22;8266;52.150;4.768;2022-08-01T00:42:06;22.40;99.90
16315;DHT22;8266;52.150;4.768;2022-08-01T00:44:34;22.40;99.90
16315;DHT22;8266;52.150;4.768;2022-08-01T00:47:03;22.40;99.90
16315;DHT22;8266;52.150;4.768;2022-08-01T00:49:31;22.40;99.90
16315;DHT22;8266;52.150;4.768;2022-08-01T00:51:58;22.40;99.90
16315;DHT22;8266;52.150;4.768;2022-08-01T00:54:26;22.40;99.90
16315;DHT22;8266;52.150;4.768;2022-08-01T00:56:53;22.30;99.90
16315;DHT22;8266;52.150;4.768;2022-08-01T00:59:21;22.30;99.90
16315;DHT22;8266;52.150;4.768;2022-08-01T01:01:49;22.30;99.90
16315;DHT22;8266;52.150;4.768;2022-08-01T01:04:17;22.30;99.90
16315;DHT22;8266;52.150;4.768;2022-08-01T01:06:48;22.20;99.90
16315;DHT22;8266;52.150;4.768;2022-08-01T01:09:29;22.30;99.90
16315;DHT22;8266;52.150;4.768;2022-08-01T01:12:05;22.20;99.90
16315;DHT22;8266;52.150;4.768;2022-08-01T01:17:27;22.20;99.90
16315;DHT22;8266;52.150;4.768;2022-08-01T01:19:57;22.20;99.90
16315;DHT22;8266;52.150;4.768;2022-08-01T01:22:42;22.20;99.90
16315;DHT22;8266;52.150;4.768;2022-08-01T01:25:32;22.20;99.90
16315;DHT22;8266;52.150;4.768;2022-08-01T01:28:10;22.20;99.90
16315;DHT22;8266;52.150;4.768;2022-08-01T01:30:44;22.20;99.90
16315;DHT22;8266;52.150;4.768;2022-08-01T01:33:13;22.20;99.90
16315;DHT22;8266;52.150;4.768;2022-08-01T01:35:45;22.20;99.90
16315;DHT22;8266;52.150;4.768;2022-08-01T01:38:17;22.20;99.90
16315;DHT22;8266;52.150;4.768;2022-08-01T01:40:46;22.20;99.90
16315;DHT22;8266;52.150;4.768;2022-08-01T01:43:15;22.20;99.90
16315;DHT22;8266;52.150;4.768;2022-08-01T01:45:44;22.20;99.90
16315;DHT22;8266;52.150;4.768;2022-08-01T01:48:14;22.20;99.90
16315;DHT22;8266;52.150;4.768;2022-08-01T01:50:43;22.20;99.90
16315;DHT22;8266;52.150;4.768;2022-08-01T01:53:13;22.20;99.90
16315;DHT22;8266;52.150;4.768;2022-08-01T01:55:48;22.20;99.90
16315;DHT22;8266;52.150;4.768;2022-08-01T01:58:20;22.20;99.90
16315;DHT22;8266;52.150;4.768;2022-08-01T02:00:50;22.20;99.90
16315;DHT22;8266;52.150;4.768;2022-08-01T02:03:20;22.20;99.90
16315;DHT22;8266;52.150;4.768;2022-08-01T02:06:01;22.20;99.90
16315;DHT22;8266;52.150;4.768;2022-08-01T02:08:32;22.20;99.90
16315;DHT22;8266;52.150;4.768;2022-08-01T02:11:07;22.20;99.90
16315;DHT22;8266;52.150;4.768;2022-08-01T02:13:57;22.10;99.90
16315;DHT22;8266;52.150;4.768;2022-08-01T02:16:28;22.10;99.90
16315;DHT22;8266;52.150;4.768;2022-08-01T02:18:59;22.10;99.90
16315;DHT22;8266;52.150;4.768;2022-08-01T02:21:30;22.10;99.90
16315;DHT22;8266;52.150;4.768;2022-08-01T02:24:03;22.10;99.90
16315;DHT22;8266;52.150;4.768;2022-08-01T02:26:42;22.10;99.90
16315;DHT22;8266;52.150;4.768;2022-08-01T02:29:13;22.00;99.90
16315;DHT22;8266;52.150;4.768;2022-08-01T02:31:50;22.00;99.90
16315;DHT22;8266;52.150;4.768;2022-08-01T02:34:21;22.00;99.90
16315;DHT22;8266;52.150;4.768;2022-08-01T02:36:55;22.00;99.90
16315;DHT22;8266;52.150;4.768;2022-08-01T02:39:26;22.00;99.90
16315;DHT22;8266;52.150;4.768;2022-08-01T02:41:57;22.00;99.90
16315;DHT22;8266;52.150;4.768;2022-08-01T02:44:30;21.90;99.90
16315;DHT22;8266;52.150;4.768;2022-08-01T02:47:01;21.90;99.90
16315;DHT22;8266;52.150;4.768;2022-08-01T02:49:35;21.90;99.90
16315;DHT22;8266;52.150;4.768;2022-08-01T02:52:07;21.90;99.90
16315;DHT22;8266;52.150;4.768;2022-08-01T02:54:41;21.90;99.90
16315;DHT22;8266;52.150;4.768;2022-08-01T02:57:09;21.90;99.90
16315;DHT22;8266;52.150;4.768;2022-08-01T02:59:38;21.90;99.90
16315;DHT22;8266;52.150;4.768;2022-08-01T03:02:08;21.90;99.90
16315;DHT22;8266;52.150;4.768;2022-08-01T03:04:38;21.90;99.90
16315;DHT22;8266;52.150;4.768;2022-08-01T03:07:08;21.90;99.90
16315;DHT22;8266;52.150;4.768;2022-08-01T03:09:44;21.90;99.90
16315;DHT22;8266;52.150;4.768;2022-08-01T03:12:15;21.90;99.90
16315;DHT22;8266;52.150;4.768;2022-08-01T03:14:50;21.90;99.90
16315;DHT22;8266;52.150;4.768;2022-08-01T03:17:22;21.90;99.90
16315;DHT22;8266;52.150;4.768;2022-08-01T03:19:53;21.90;99.90
16315;DHT22;8266;52.150;4.768;2022-08-01T03:22:26;21.90;99.90
16315;DHT22;8266;52.150;4.768;2022-08-01T03:24:57;21.90;99.90
16315;DHT22;8266;52.150;4.768;2022-08-01T03:27:25;21.90;99.90
16315;DHT22;8266;52.150;4.768;2022-08-01T03:29:55;21.90;99.90
16315;DHT22;8266;52.150;4.768;2022-08-01T03:32:27;21.90;99.90
16315;DHT22;8266;52.150;4.768;2022-08-01T03:34:58;21.90;99.90
16315;DHT22;8266;52.150;4.768;2022-08-01T03:37:30;21.90;99.90
16315;DHT22;8266;52.150;4.768;2022-08-01T03:40:04;21.90;99.90
16315;DHT22;8266;52.150;4.768;2022-08-01T03:42:53;21.90;99.90
16315;DHT22;8266;52.150;4.768;2022-08-01T03:45:29;21.80;99.90
16315;DHT22;8266;52.150;4.768;2022-08-01T03:48:01;21.80;99.90
16315;DHT22;8266;52.150;4.768;2022-08-01T03:50:29;21.80;99.90
16315;DHT22;8266;52.150;4.768;2022-08-01T03:53:00;21.80;99.90
16315;DHT22;8266;52.150;4.768;2022-08-01T03:55:30;21.70;99.90
16315;DHT22;8266;52.150;4.768;2022-08-01T03:58:00;21.70;99.90
16315;DHT22;8266;52.150;4.768;2022-08-01T04:00:35;21.70;99.90
16315;DHT22;8266;52.150;4.768;2022-08-01T04:03:07;21.70;99.90
16315;DHT22;8266;52.150;4.768;2022-08-01T04:05:37;21.70;99.90
16315;DHT22;8266;52.150;4.768;2022-08-01T04:08:04;21.70;99.90
16315;DHT22;8266;52.150;4.768;2022-08-01T04:10:32;21.70;99.90
16315;DHT22;8266;52.150;4.768;2022-08-01T04:13:00;21.60;99.90
16315;DHT22;8266;52.150;4.768;2022-08-01T04:15:28;21.60;99.90
16315;DHT22;8266;52.150;4.768;2022-08-01T04:17:57;21.60;99.90
16315;DHT22;8266;52.150;4.768;2022-08-01T04:20:25;21.60;99.90
16315;DHT22;8266;52.150;4.768;2022-08-01T04:22:52;21.60;99.90
16315;DHT22;8266;52.150;4.768;2022-08-01T04:25:23;21.60;99.90
16315;DHT22;8266;52.150;4.768;2022-08-01T04:27:52;21.60;99.90
16315;DHT22;8266;52.150;4.768;2022-08-01T04:30:29;21.60;99.90
16315;DHT22;8266;52.150;4.768;2022-08-01T04:33:00;21.60;99.90
16315;DHT22;8266;52.150;4.768;2022-08-01T04:35:30;21.60;99.90
16315;DHT22;8266;52.150;4.768;2022-08-01T04:37:58;21.60;99.90
16315;DHT22;8266;52.150;4.768;2022-08-01T04:40:27;21.60;99.90
16315;DHT22;8266;52.150;4.768;2022-08-01T04:42:55;21.60;99.90
16315;DHT22;8266;52.150;4.768;2022-08-01T04:45:22;21.60;99.90
16315;DHT22;8266;52.150;4.768;2022-08-01T04:47:51;21.60;99.90
16315;DHT22;8266;52.150;4.768;2022-08-01T04:50:18;21.70;99.90
16315;DHT22;8266;52.150;4.768;2022-08-01T04:52:48;21.70;99.90
16315;DHT22;8266;52.150;4.768;2022-08-01T04:55:16;21.70;99.90
16315;DHT22;8266;52.150;4.768;2022-08-01T04:57:46;21.70;99.90
16315;DHT22;8266;52.150;4.768;2022-08-01T05:00:15;21.70;99.90
16315;DHT22;8266;52.150;4.768;2022-08-01T05:02:45;21.80;99.90
16315;DHT22;8266;52.150;4.768;2022-08-01T05:05:12;21.80;99.90
16315;DHT22;8266;52.150;4.768;2022-08-01T05:07:40;21.80;99.90
16315;DHT22;8266;52.150;4.768;2022-08-01T05:10:09;21.90;99.90
16315;DHT22;8266;52.150;4.768;2022-08-01T05:12:36;21.90;99.90
16315;DHT22;8266;52.150;4.768;2022-08-01T05:15:04;21.90;99.90
16315;DHT22;8266;52.150;4.768;2022-08-01T05:17:32;21.90;99.90
16315;DHT22;8266;52.150;4.768;2022-08-01T05:19:59;22.00;99.90
16315;DHT22;8266;52.150;4.768;2022-08-01T05:22:28;22.00;99.90
16315;DHT22;8266;52.150;4.768;2022-08-01T05:24:55;22.00;99.90
16315;DHT22;8266;52.150;4.768;2022-08-01T05:27:23;22.00;99.90
16315;DHT22;8266;52.150;4.768;2022-08-01T05:29:51;22.00;99.90
16315;DHT22;8266;52.150;4.768;2022-08-01T05:32:18;22.00;99.90
16315;DHT22;8266;52.150;4.768;2022-08-01T05:34:45;22.00;99.90
16315;DHT22;8266;52.150;4.768;2022-08-01T05:37:12;22.00;99.90
16315;DHT22;8266;52.150;4.768;2022-08-01T05:39:39;22.00;99.90
16315;DHT22;8266;52.150;4.768;2022-08-01T05:42:06;22.00;99.90
16315;DHT22;8266;52.150;4.768;2022-08-01T05:44:34;22.00;99.90
16315;DHT22;8266;52.150;4.768;2022-08-01T05:47:01;22.10;99.90
16315;DHT22;8266;52.150;4.768;2022-08-01T05:49:32;22.10;99.90
16315;DHT22;8266;52.150;4.768;2022-08-01T05:51:59;22.00;99.90
16315;DHT22;8266;52.150;4.768;2022-08-01T05:54:27;22.00;99.90
16315;DHT22;8266;52.150;4.768;2022-08-01T05:56:54;22.10;99.90
16315;DHT22;8266;52.150;4.768;2022-08-01T05:59:25;22.10;99.90
16315;DHT22;8266;52.150;4.768;2022-08-01T06:01:53;22.10;99.90
16315;DHT22;8266;52.150;4.768;2022-08-01T06:04:21;22.10;99.90
16315;DHT22;8266;52.150;4.768;2022-08-01T06:06:48;22.10;99.90
16315;DHT22;8266;52.150;4.768;2022-08-01T06:09:15;22.10;99.90
16315;DHT22;8266;52.150;4.768;2022-08-01T06:11:43;22.10;99.90
16315;DHT22;8266;52.150;4.768;2022-08-01T06:14:10;22.10;99.90
16315;DHT22;8266;52.150;4.768;2022-08-01T06:16:37;22.10;99.90
16315;DHT22;8266;52.150;4.768;2022-08-01T06:19:09;22.00;99.90
16315;DHT22;8266;52.150;4.768;2022-08-01T06:21:38;22.00;99.90
16315;DHT22;8266;52.150;4.768;2022-08-01T06:24:05;22.00;99.90
16315;DHT22;8266;52.150;4.768;2022-08-01T06:26:32;22.00;99.90
16315;DHT22;8266;52.150;4.768;2022-08-01T06:28:59;22.00;99.90
16315;DHT22;8266;52.150;4.768;2022-08-01T06:31:28;21.90;99.90
16315;DHT22;8266;52.150;4.768;2022-08-01T06:33:59;21.90;99.90
16315;DHT22;8266;52.150;4.768;2022-08-01T06:36:28;21.90;99.90
16315;DHT22;8266;52.150;4.768;2022-08-01T06:38:55;21.90;99.90
16315;DHT22;8266;52.150;4.768;2022-08-01T06:41:24;21.90;99.90
16315;DHT22;8266;52.150;4.768;2022-08-01T06:43:51;21.90;99.90
16315;DHT22;8266;52.150;4.768;2022-08-01T06:46:18;21.90;99.90
16315;DHT22;8266;52.150;4.768;2022-08-01T06:48:45;21.80;99.90
16315;DHT22;8266;52.150;4.768;2022-08-01T06:51:12;21.80;99.90
16315;DHT22;8266;52.150;4.768;2022-08-01T06:53:44;21.70;99.90
16315;DHT22;8266;52.150;4.768;2022-08-01T06:56:13;21.70;99.90
16315;DHT22;8266;52.150;4.768;2022-08-01T06:58:40;21.70;99.90
16315;DHT22;8266;52.150;4.768;2022-08-01T07:01:07;21.60;99.90
16315;DHT22;8266;52.150;4.768;2022-08-01T07:03:35;21.60;99.90
16315;DHT22;8266;52.150;4.768;2022-08-01T07:06:06;21.50;99.90
16315;DHT22;8266;52.150;4.768;2022-08-01T07:08:37;21.50;99.90
16315;DHT22;8266;52.150;4.768;2022-08-01T07:11:07;21.50;99.90
16315;DHT22;8266;52.150;4.768;2022-08-01T07:13:40;21.60;99.90
16315;DHT22;8266;52.150;4.768;2022-08-01T07:16:07;21.50;99.90
16315;DHT22;8266;52.150;4.768;2022-08-01T07:18:35;21.50;99.90
16315;DHT22;8266;52.150;4.768;2022-08-01T07:21:25;21.60;99.90
16315;DHT22;8266;52.150;4.768;2022-08-01T07:23:54;21.60;99.90
16315;DHT22;8266;52.150;4.768;2022-08-01T07:26:31;21.60;99.90
16315;DHT22;8266;52.150;4.768;2022-08-01T07:29:18;21.70;99.90
16315;DHT22;8266;52.150;4.768;2022-08-01T07:31:46;21.80;99.90
16315;DHT22;8266;52.150;4.768;2022-08-01T07:34:14;21.80;99.90
16315;DHT22;8266;52.150;4.768;2022-08-01T07:36:42;21.90;99.90
16315;DHT22;8266;52.150;4.768;2022-08-01T07:39:10;22.00;99.90
16315;DHT22;8266;52.150;4.768;2022-08-01T07:41:40;22.00;99.90
16315;DHT22;8266;52.150;4.768;2022-08-01T07:44:08;22.10;99.90
16315;DHT22;8266;52.150;4.768;2022-08-01T07:46:38;22.10;99.90
16315;DHT22;8266;52.150;4.768;2022-08-01T07:49:17;22.20;99.90
16315;DHT22;8266;52.150;4.768;2022-08-01T07:51:52;22.20;99.90
16315;DHT22;8266;52.150;4.768;2022-08-01T07:54:27;22.20;99.90
16315;DHT22;8266;52.150;4.768;2022-08-01T07:57:25;22.20;99.90
16315;DHT22;8266;52.150;4.768;2022-08-01T08:00:10;22.30;99.90
16315;DHT22;8266;52.150;4.768;2022-08-01T08:02:58;22.30;99.90
16315;DHT22;8266;52.150;4.768;2022-08-01T08:05:46;22.40;99.90
16315;DHT22;8266;52.150;4.768;2022-08-01T08:09:15;22.50;99.90
16315;DHT22;8266;52.150;4.768;2022-08-01T08:11:58;22.60;99.90
16315;DHT22;8266;52.150;4.768;2022-08-01T08:14:30;22.70;99.90
16315;DHT22;8266;52.150;4.768;2022-08-01T08:17:05;22.80;99.90
16315;DHT22;8266;52.150;4.768;2022-08-01T08:19:46;22.80;99.90
16315;DHT22;8266;52.150;4.768;2022-08-01T08:22:31;22.90;99.90
16315;DHT22;8266;52.150;4.768;2022-08-01T08:25:41;23.10;99.90
16315;DHT22;8266;52.150;4.768;2022-08-01T08:28:18;23.10;99.90
16315;DHT22;8266;52.150;4.768;2022-08-01T08:30:50;23.20;99.90
16315;DHT22;8266;52.150;4.768;2022-08-01T08:33:22;23.20;99.90
16315;DHT22;8266;52.150;4.768;2022-08-01T08:36:18;23.30;99.90
16315;DHT22;8266;52.150;4.768;2022-08-01T08:39:13;23.40;99.90
16315;DHT22;8266;52.150;4.768;2022-08-01T08:41:43;23.50;99.90
16315;DHT22;8266;52.150;4.768;2022-08-01T08:44:17;23.60;99.90
16315;DHT22;8266;52.150;4.768;2022-08-01T08:46:55;23.60;99.90
16315;DHT22;8266;52.150;4.768;2022-08-01T08:49:29;23.80;99.90
16315;DHT22;8266;52.150;4.768;2022-08-01T08:52:19;23.80;99.90
16315;DHT22;8266;52.150;4.768;2022-08-01T08:55:08;23.90;99.90
16315;DHT22;8266;52.150;4.768;2022-08-01T09:04:36;24.10;99.90
16315;DHT22;8266;52.150;4.768;2022-08-01T09:11:15;24.10;99.90
16315;DHT22;8266;52.150;4.768;2022-08-01T09:13:24;24.00;99.90
16315;DHT22;8266;52.150;4.768;2022-08-01T09:22:33;23.90;99.90
16315;DHT22;8266;52.150;4.768;2022-08-01T09:25:24;23.90;99.90
16315;DHT22;8266;52.150;4.768;2022-08-01T09:28:32;23.80;99.90
16315;DHT22;8266;52.150;4.768;2022-08-01T09:31:05;23.90;99.90
16315;DHT22;8266;52.150;4.768;2022-08-01T09:34:02;23.90;99.90
16315;DHT22;8266;52.150;4.768;2022-08-01T09:36:49;23.90;99.90
16315;DHT22;8266;52.150;4.768;2022-08-01T09:50:29;24.10;99.90
16315;DHT22;8266;52.150;4.768;2022-08-01T09:53:52;24.10;99.90
16315;DHT22;8266;52.150;4.768;2022-08-01T09:56:47;24.10;99.90
16315;DHT22;8266;52.150;4.768;2022-08-01T10:09:28;24.40;99.90
16315;DHT22;8266;52.150;4.768;2022-08-01T10:12:05;24.40;99.90
16315;DHT22;8266;52.150;4.768;2022-08-01T10:14:42;24.60;99.90
16315;DHT22;8266;52.150;4.768;2022-08-01T10:17:20;24.70;99.90
16315;DHT22;8266;52.150;4.768;2022-08-01T10:19:51;24.90;99.90
16315;DHT22;8266;52.150;4.768;2022-08-01T10:22:24;25.00;99.90
16315;DHT22;8266;52.150;4.768;2022-08-01T10:25:29;25.20;99.90
16315;DHT22;8266;52.150;4.768;2022-08-01T10:28:31;25.40;99.90
16315;DHT22;8266;52.150;4.768;2022-08-01T10:31:10;25.60;99.90
16315;DHT22;8266;52.150;4.768;2022-08-01T10:33:45;25.70;99.90
16315;DHT22;8266;52.150;4.768;2022-08-01T10:36:20;25.70;99.90
16315;DHT22;8266;52.150;4.768;2022-08-01T10:38:50;25.80;99.90
16315;DHT22;8266;52.150;4.768;2022-08-01T10:44:55;25.80;99.90
16315;DHT22;8266;52.150;4.768;2022-08-01T10:51:31;26.00;99.90
16315;DHT22;8266;52.150;4.768;2022-08-01T10:54:18;26.00;99.90
16315;DHT22;8266;52.150;4.768;2022-08-01T10:56:49;25.90;99.90
16315;DHT22;8266;52.150;4.768;2022-08-01T10:59:22;25.80;99.90
16315;DHT22;8266;52.150;4.768;2022-08-01T11:01:59;25.80;99.90
16315;DHT22;8266;52.150;4.768;2022-08-01T11:07:24;25.70;99.90
16315;DHT22;8266;52.150;4.768;2022-08-01T11:10:08;25.80;99.90
16315;DHT22;8266;52.150;4.768;2022-08-01T11:12:45;25.80;99.90
16315;DHT22;8266;52.150;4.768;2022-08-01T11:15:19;25.80;99.90
16315;DHT22;8266;52.150;4.768;2022-08-01T11:18:32;25.80;99.90
16315;DHT22;8266;52.150;4.768;2022-08-01T11:21:05;25.80;99.90
16315;DHT22;8266;52.150;4.768;2022-08-01T11:23:47;25.80;99.90
16315;DHT22;8266;52.150;4.768;2022-08-01T11:29:10;26.00;99.90
16315;DHT22;8266;52.150;4.768;2022-08-01T11:32:31;26.20;99.90
16315;DHT22;8266;52.150;4.768;2022-08-01T11:35:16;26.30;99.90
16315;DHT22;8266;52.150;4.768;2022-08-01T11:38:22;26.30;99.90
16315;DHT22;8266;52.150;4.768;2022-08-01T11:41:11;26.20;99.90
16315;DHT22;8266;52.150;4.768;2022-08-01T11:43:56;26.20;99.90
16315;DHT22;8266;52.150;4.768;2022-08-01T11:47:11;26.20;99.90
16315;DHT22;8266;52.150;4.768;2022-08-01T11:49:50;26.20;99.90
16315;DHT22;8266;52.150;4.768;2022-08-01T11:52:37;26.20;99.90
16315;DHT22;8266;52.150;4.768;2022-08-01T11:55:43;26.20;99.90
16315;DHT22;8266;52.150;4.768;2022-08-01T11:58:20;26.30;99.90
16315;DHT22;8266;52.150;4.768;2022-08-01T12:04:02;26.30;99.90
16315;DHT22;8266;52.150;4.768;2022-08-01T12:06:32;26.40;99.90
16315;DHT22;8266;52.150;4.768;2022-08-01T12:09:32;26.40;99.90
16315;DHT22;8266;52.150;4.768;2022-08-01T12:12:00;26.40;99.90
16315;DHT22;8266;52.150;4.768;2022-08-01T12:14:31;26.40;99.90
16315;DHT22;8266;52.150;4.768;2022-08-01T12:16:59;26.50;99.90
16315;DHT22;8266;52.150;4.768;2022-08-01T12:19:31;26.50;99.90
16315;DHT22;8266;52.150;4.768;2022-08-01T12:22:46;26.50;99.90
16315;DHT22;8266;52.150;4.768;2022-08-01T12:25:30;26.60;99.90
16315;DHT22;8266;52.150;4.768;2022-08-01T12:28:16;26.80;99.90
16315;DHT22;8266;52.150;4.768;2022-08-01T12:30:54;26.90;99.90
16315;DHT22;8266;52.150;4.768;2022-08-01T12:33:33;27.00;99.90
16315;DHT22;8266;52.150;4.768;2022-08-01T12:36:11;27.00;99.90
16315;DHT22;8266;52.150;4.768;2022-08-01T12:38:50;27.10;99.90
16315;DHT22;8266;52.150;4.768;2022-08-01T12:41:19;27.10;99.90
16315;DHT22;8266;52.150;4.768;2022-08-01T12:44:03;27.00;99.90
16315;DHT22;8266;52.150;4.768;2022-08-01T12:46:49;27.20;99.90
16315;DHT22;8266;52.150;4.768;2022-08-01T12:49:17;27.30;99.90
16315;DHT22;8266;52.150;4.768;2022-08-01T12:52:23;27.30;99.90
16315;DHT22;8266;52.150;4.768;2022-08-01T12:55:05;27.40;99.90
16315;DHT22;8266;52.150;4.768;2022-08-01T12:57:42;27.50;99.90
16315;DHT22;8266;52.150;4.768;2022-08-01T13:00:14;27.50;99.90
16315;DHT22;8266;52.150;4.768;2022-08-01T13:02:44;27.60;99.90
16315;DHT22;8266;52.150;4.768;2022-08-01T13:05:20;27.60;99.90
16315;DHT22;8266;52.150;4.768;2022-08-01T13:08:02;27.70;99.90
16315;DHT22;8266;52.150;4.768;2022-08-01T13:10:39;27.80;99.90
16315;DHT22;8266;52.150;4.768;2022-08-01T13:13:12;27.80;99.90
16315;DHT22;8266;52.150;4.768;2022-08-01T13:15:50;27.80;99.90
16315;DHT22;8266;52.150;4.768;2022-08-01T13:18:32;27.80;99.90
16315;DHT22;8266;52.150;4.768;2022-08-01T13:21:10;27.80;99.90
16315;DHT22;8266;52.150;4.768;2022-08-01T13:23:40;27.80;99.90
16315;DHT22;8266;52.150;4.768;2022-08-01T13:26:08;27.80;99.90
16315;DHT22;8266;52.150;4.768;2022-08-01T13:28:35;27.80;99.90
16315;DHT22;8266;52.150;4.768;2022-08-01T13:31:08;27.70;99.90
16315;DHT22;8266;52.150;4.768;2022-08-01T13:33:47;27.70;99.20
16315;DHT22;8266;52.150;4.768;2022-08-01T13:36:15;27.70;99.40
16315;DHT22;8266;52.150;4.768;2022-08-01T13:38:43;27.70;98.90
16315;DHT22;8266;52.150;4.768;2022-08-01T13:41:33;27.70;98.90
16315;DHT22;8266;52.150;4.768;2022-08-01T13:44:02;27.70;98.50
16315;DHT22;8266;52.150;4.768;2022-08-01T13:46:36;27.80;99.30
16315;DHT22;8266;52.150;4.768;2022-08-01T13:49:34;27.90;99.90
16315;DHT22;8266;52.150;4.768;2022-08-01T13:52:09;28.00;98.90
16315;DHT22;8266;52.150;4.768;2022-08-01T13:54:38;28.00;99.00
16315;DHT22;8266;52.150;4.768;2022-08-01T13:57:13;28.10;98.90
16315;DHT22;8266;52.150;4.768;2022-08-01T14:00:06;28.00;98.10
16315;DHT22;8266;52.150;4.768;2022-08-01T14:02:58;28.10;99.10
16315;DHT22;8266;52.150;4.768;2022-08-01T14:08:48;28.20;98.60
16315;DHT22;8266;52.150;4.768;2022-08-01T14:14:54;28.20;97.50
16315;DHT22;8266;52.150;4.768;2022-08-01T14:18:18;28.20;98.30
16315;DHT22;8266;52.150;4.768;2022-08-01T14:21:04;28.30;97.20
16315;DHT22;8266;52.150;4.768;2022-08-01T14:23:38;28.40;97.10
16315;DHT22;8266;52.150;4.768;2022-08-01T14:26:12;28.40;96.30
16315;DHT22;8266;52.150;4.768;2022-08-01T14:28:55;28.30;96.00
16315;DHT22;8266;52.150;4.768;2022-08-01T14:34:57;28.30;96.70
16315;DHT22;8266;52.150;4.768;2022-08-01T14:37:27;28.10;97.10
16315;DHT22;8266;52.150;4.768;2022-08-01T14:40:35;28.10;94.80
16315;DHT22;8266;52.150;4.768;2022-08-01T14:43:07;28.10;95.20
16315;DHT22;8266;52.150;4.768;2022-08-01T14:45:42;28.00;94.20
16315;DHT22;8266;52.150;4.768;2022-08-01T14:48:49;28.00;93.50
16315;DHT22;8266;52.150;4.768;2022-08-01T14:51:18;28.00;94.90
16315;DHT22;8266;52.150;4.768;2022-08-01T14:53:45;28.00;93.60
16315;DHT22;8266;52.150;4.768;2022-08-01T14:56:25;28.00;93.10
16315;DHT22;8266;52.150;4.768;2022-08-01T14:58:57;28.10;93.00
16315;DHT22;8266;52.150;4.768;2022-08-01T15:01:38;28.10;92.30
16315;DHT22;8266;52.150;4.768;2022-08-01T15:04:18;28.10;92.90
16315;DHT22;8266;52.150;4.768;2022-08-01T15:06:58;28.10;92.40
16315;DHT22;8266;52.150;4.768;2022-08-01T15:09:26;28.10;92.20
16315;DHT22;8266;52.150;4.768;2022-08-01T15:11:55;28.20;93.10
16315;DHT22;8266;52.150;4.768;2022-08-01T15:14:22;28.20;92.50
16315;DHT22;8266;52.150;4.768;2022-08-01T15:17:08;28.30;92.50
16315;DHT22;8266;52.150;4.768;2022-08-01T15:19:37;28.30;90.40
16315;DHT22;8266;52.150;4.768;2022-08-01T15:22:04;28.30;90.90
16315;DHT22;8266;52.150;4.768;2022-08-01T15:24:31;28.30;91.60
16315;DHT22;8266;52.150;4.768;2022-08-01T15:26:58;28.30;91.50
16315;DHT22;8266;52.150;4.768;2022-08-01T15:29:25;28.30;90.50
16315;DHT22;8266;52.150;4.768;2022-08-01T15:31:52;28.30;90.30
16315;DHT22;8266;52.150;4.768;2022-08-01T15:34:19;28.40;90.10
16315;DHT22;8266;52.150;4.768;2022-08-01T15:36:47;28.40;91.40
16315;DHT22;8266;52.150;4.768;2022-08-01T15:39:14;28.50;88.20
16315;DHT22;8266;52.150;4.768;2022-08-01T15:41:41;28.50;88.90
16315;DHT22;8266;52.150;4.768;2022-08-01T15:44:08;28.60;89.30
16315;DHT22;8266;52.150;4.768;2022-08-01T15:46:36;28.70;89.00
16315;DHT22;8266;52.150;4.768;2022-08-01T15:49:03;28.70;87.60
16315;DHT22;8266;52.150;4.768;2022-08-01T15:51:31;28.80;87.70
16315;DHT22;8266;52.150;4.768;2022-08-01T15:54:00;28.80;86.80
16315;DHT22;8266;52.150;4.768;2022-08-01T15:56:28;28.80;86.60
16315;DHT22;8266;52.150;4.768;2022-08-01T15:58:56;28.90;87.80
16315;DHT22;8266;52.150;4.768;2022-08-01T16:01:23;28.90;86.50
16315;DHT22;8266;52.150;4.768;2022-08-01T16:03:51;28.90;86.20
16315;DHT22;8266;52.150;4.768;2022-08-01T16:06:18;28.90;85.20
16315;DHT22;8266;52.150;4.768;2022-08-01T16:08:46;28.90;86.20
16315;DHT22;8266;52.150;4.768;2022-08-01T16:11:14;28.90;86.00
16315;DHT22;8266;52.150;4.768;2022-08-01T16:13:41;28.90;84.30
16315;DHT22;8266;52.150;4.768;2022-08-01T16:16:09;28.90;83.80
16315;DHT22;8266;52.150;4.768;2022-08-01T16:18:36;29.00;84.10
16315;DHT22;8266;52.150;4.768;2022-08-01T16:21:03;28.90;83.90
16315;DHT22;8266;52.150;4.768;2022-08-01T16:23:32;28.90;83.80
16315;DHT22;8266;52.150;4.768;2022-08-01T16:25:59;28.90;84.90
16315;DHT22;8266;52.150;4.768;2022-08-01T16:28:28;28.90;84.90
16315;DHT22;8266;52.150;4.768;2022-08-01T16:30:55;29.00;84.00
16315;DHT22;8266;52.150;4.768;2022-08-01T16:33:22;29.00;82.90
16315;DHT22;8266;52.150;4.768;2022-08-01T16:35:49;29.00;83.40
16315;DHT22;8266;52.150;4.768;2022-08-01T16:38:18;29.00;84.40
16315;DHT22;8266;52.150;4.768;2022-08-01T16:40:46;29.00;83.00
16315;DHT22;8266;52.150;4.768;2022-08-01T16:43:13;29.00;83.50
16315;DHT22;8266;52.150;4.768;2022-08-01T16:45:42;29.10;83.50
16315;DHT22;8266;52.150;4.768;2022-08-01T16:48:12;29.20;83.10
16315;DHT22;8266;52.150;4.768;2022-08-01T16:50:40;29.10;84.10
16315;DHT22;8266;52.150;4.768;2022-08-01T16:53:17;29.20;83.00
16315;DHT22;8266;52.150;4.768;2022-08-01T16:55:45;29.10;82.40
16315;DHT22;8266;52.150;4.768;2022-08-01T16:58:17;29.10;81.90
16315;DHT22;8266;52.150;4.768;2022-08-01T17:00:46;29.10;82.60
16315;DHT22;8266;52.150;4.768;2022-08-01T17:03:16;29.20;83.30
16315;DHT22;8266;52.150;4.768;2022-08-01T17:05:43;29.20;83.20
16315;DHT22;8266;52.150;4.768;2022-08-01T17:08:10;29.20;83.00
16315;DHT22;8266;52.150;4.768;2022-08-01T17:10:37;29.20;83.20
16315;DHT22;8266;52.150;4.768;2022-08-01T17:13:04;29.20;83.50
16315;DHT22;8266;52.150;4.768;2022-08-01T17:15:31;29.30;83.70
16315;DHT22;8266;52.150;4.768;2022-08-01T17:18:01;29.30;84.20
16315;DHT22;8266;52.150;4.768;2022-08-01T17:20:28;29.40;83.50
16315;DHT22;8266;52.150;4.768;2022-08-01T17:22:55;29.40;84.10
16315;DHT22;8266;52.150;4.768;2022-08-01T17:25:22;29.50;83.80
16315;DHT22;8266;52.150;4.768;2022-08-01T17:27:50;29.50;84.00
16315;DHT22;8266;52.150;4.768;2022-08-01T17:30:18;29.50;83.20
16315;DHT22;8266;52.150;4.768;2022-08-01T17:32:46;29.50;82.90
16315;DHT22;8266;52.150;4.768;2022-08-01T17:35:21;29.50;83.20